This is the latest recevied weather packets stored in our database for station/object K6CED. If no packets are shown the sender has not sent any weather packets the latest 10 day(s).
| Time | Temp. | Humidity | Pressure | Rain* | Wind** | Luminosity | Snow |
|---|---|---|---|---|---|---|---|
| 1788452899 | 20.56° C | 67% | 1017.5 hPa | 0 mm | - | 497 W/m² | - |
| 1788452595 | 20.56° C | 68% | 1017.6 hPa | 0 mm | - | 491 W/m² | - |
| 1788452291 | 20.56° C | 68% | 1017.7 hPa | 0 mm | - | 483 W/m² | - |
| 1788451986 | 20° C | 69% | 1017.5 hPa | 0 mm | - | 476 W/m² | - |
| 1788451682 | 20° C | 70% | 1017.8 hPa | 0 mm | - | 460 W/m² | - |
| 1788451381 | 20° C | 68% | 1017.7 hPa | 0 mm | - | 443 W/m² | - |
| 1788451079 | 20° C | 69% | 1017.8 hPa | 0 mm | - | 423 W/m² | - |
| 1788450774 | 19.44° C | 69% | 1017.6 hPa | 0 mm | - | 401 W/m² | - |
| 1788450470 | 19.44° C | 67% | 1017.9 hPa | 0 mm | - | 177 W/m² | - |
| 1788450166 | 19.44° C | 63% | 1017.8 hPa | 0 mm | - | 361 W/m² | - |
| 1788449861 | 19.44° C | 59% | 1018 hPa | 0 mm | - | 338 W/m² | - |
| 1788449557 | 19.44° C | 59% | 1017.8 hPa | 0 mm | - | 313 W/m² | - |
| 1788449253 | 19.44° C | 58% | 1017.9 hPa | 0 mm | - | 291 W/m² | - |
| 1788448949 | 18.33° C | 59% | 1018 hPa | 0 mm | - | 238 W/m² | - |
| 1788448671 | 17.22° C | 61% | 1017.8 hPa | 0 mm | - | 246 W/m² | - |
| 1788448344 | 17.22° C | 60% | 1017.8 hPa | 0 mm | - | 237 W/m² | - |
| 1788448039 | 17.78° C | 59% | 1017.9 hPa | 0 mm | - | 231 W/m² | - |
| 1788447733 | 17.78° C | 61% | 1017.9 hPa | 0 mm | - | 198 W/m² | - |
| 1788447428 | 17.22° C | 64% | 1018 hPa | 0 mm | - | 188 W/m² | - |
| 1788447124 | 16.67° C | 68% | 1017.9 hPa | 0 mm | - | 163 W/m² | - |
| 1788446822 | 16.11° C | 71% | 1017.9 hPa | 0 mm | - | 158 W/m² | - |
| 1788446518 | 15.56° C | 71% | 1017.8 hPa | 0 mm | - | 137 W/m² | - |
| 1788446214 | 15.56° C | 72% | 1017.9 hPa | 0 mm | - | 119 W/m² | - |
| 1788445910 | 15° C | 73% | 1017.8 hPa | 0 mm | - | 104 W/m² | - |
| 1788445617 | 13.89° C | 76% | 1017.7 hPa | 0 mm | - | 84 W/m² | - |
* Rain latest hour (hover to see other rain measurements)
** Current wind speed in m/s (hover to see current wind gust speed)